| time (UTC) | temp F | wind direction | speed knots | gust knots | rain 1hr in | rain 24hr in | rain mn in | humidity % | barometer mb |
| 20260902124732 | 56 | 279 | 0.0 | 0.0 | 0.00 | 0.00 | 0.00 | 75 | 1015.5 |
| 20260902124227 | 56 | 296 | 0.0 | 0.0 | 0.00 | 0.00 | 0.00 | 74 | 1015.5 |
| 20260902123717 | 57 | 259 | 0.0 | 0.9 | 0.00 | 0.00 | 0.00 | 74 | 1015.5 |
| 20260902123213 | 57 | 319 | 0.0 | 0.0 | 0.00 | 0.00 | 0.00 | 73 | 1015.4 |
| 20260902122712 | 57 | 304 | 0.0 | 0.9 | 0.00 | 0.00 | 0.00 | 73 | 1015.5 |
| 20260902122207 | 57 | 271 | 0.9 | 0.9 | 0.00 | 0.00 | 0.00 | 72 | 1015.4 |
| 20260902121702 | 57 | 292 | 0.9 | 0.9 | 0.00 | 0.00 | 0.00 | 72 | 1015.6 |
| 20260902121156 | 57 | 328 | 0.9 | 0.9 | 0.00 | 0.00 | 0.00 | 72 | 1015.5 |
| 20260902120653 | 57 | 316 | 0.0 | 0.0 | 0.00 | 0.00 | 0.00 | 71 | 1015.4 |
| 20260902120149 | 57 | 268 | 0.9 | 0.9 | 0.00 | 0.00 | 0.00 | 71 | 1015.6 |
| 20260902115649 | 57 | 247 | 2.6 | 3.5 | 0.00 | 0.00 | 0.00 | 72 | 1015.6 |
| 20260902115145 | 57 | 227 | 2.6 | 3.5 | 0.00 | 0.00 | 0.00 | 72 | 1015.6 |
| 20260902114641 | 57 | 287 | 0.9 | 1.7 | 0.00 | 0.00 | 0.00 | 71 | 1015.6 |
| 20260902114136 | 57 | 274 | 1.7 | 1.7 | 0.00 | 0.00 | 0.00 | 72 | 1015.8 |
| 20260902113631 | 57 | 286 | 0.9 | 0.9 | 0.00 | 0.00 | 0.00 | 72 | 1015.6 |
| 20260902113126 | 57 | 45 | 0.0 | 0.9 | 0.00 | 0.00 | 0.00 | 71 | 1015.6 |
| 20260902112621 | 57 | 310 | 1.7 | 1.7 | 0.00 | 0.00 | 0.00 | 71 | 1015.3 |
| 20260902112118 | 57 | 257 | 1.7 | 3.5 | 0.00 | 0.00 | 0.00 | 71 | 1015.7 |
| 20260902111608 | 57 | 219 | 0.9 | 0.9 | 0.00 | 0.00 | 0.00 | 71 | 1015.3 |
| 20260902111103 | 57 | 247 | 0.9 | 1.7 | 0.00 | 0.00 | 0.00 | 71 | 1015.5 |
| 20260902110559 | 58 | 286 | 1.7 | 1.7 | 0.00 | 0.00 | 0.00 | 70 | 1015.4 |
| 20260902110055 | 58 | 263 | 1.7 | 1.7 | 0.00 | 0.00 | 0.00 | 69 | 1015.2 |
| 20260902105555 | 58 | 265 | 0.9 | 1.7 | 0.00 | 0.00 | 0.00 | 69 | 1015.3 |
| 20260902105055 | 58 | 263 | 2.6 | 4.3 | 0.00 | 0.00 | 0.00 | 69 | 1015.3 |
| 20260902104550 | 58 | 246 | 2.6 | 3.5 | 0.00 | 0.00 | 0.00 | 68 | 1015.4 |
| 20260902104045 | 58 | 234 | 2.6 | 3.5 | 0.00 | 0.00 | 0.00 | 67 | 1015.2 |
| 20260902103540 | 59 | 243 | 2.6 | 3.5 | 0.00 | 0.00 | 0.00 | 67 | 1015.3 |
| 20260902103035 | 59 | 258 | 2.6 | 3.5 | 0.00 | 0.00 | 0.00 | 66 | 1015.0 |
| 20260902102532 | 59 | 253 | 2.6 | 4.3 | 0.00 | 0.00 | 0.00 | 65 | 1015.2 |
| 20260902102029 | 59 | 254 | 1.7 | 1.7 | 0.00 | 0.00 | 0.00 | 65 | 1015.2 |
| 20260902101524 | 59 | 270 | 1.7 | 1.7 | 0.00 | 0.00 | 0.00 | 64 | 1015.1 |
| 20260902101023 | 60 | 297 | 0.9 | 0.9 | 0.00 | 0.00 | 0.00 | 63 | 1015.2 |
| 20260902100517 | 60 | 277 | 2.6 | 3.5 | 0.00 | 0.00 | 0.00 | 63 | 1015.2 |
| 20260902100012 | 60 | 259 | 1.7 | 1.7 | 0.00 | 0.00 | 0.00 | 64 | 1015.0 |
| 20260902095511 | 60 | 277 | 0.9 | 0.9 | 0.00 | 0.00 | 0.00 | 63 | 1015.1 |
| 20260902095010 | 61 | 269 | 0.9 | 0.9 | 0.00 | 0.00 | 0.00 | 63 | 1015.2 |
| 20260902094506 | 61 | 256 | 1.7 | 1.7 | 0.00 | 0.00 | 0.00 | 63 | 1015.0 |
| 20260902094002 | 61 | 265 | 1.7 | 1.7 | 0.00 | 0.00 | 0.00 | 63 | 1015.0 |
| 20260902093456 | 61 | 277 | 0.0 | 0.9 | 0.00 | 0.00 | 0.00 | 63 | 1015.0 |
| 20260902092955 | 61 | 324 | 0.9 | 0.9 | 0.00 | 0.00 | 0.00 | 63 | 1015.0 |
| 20260902092451 | 61 | 261 | 1.7 | 1.7 | 0.00 | 0.00 | 0.00 | 62 | 1015.0 |
| 20260902091951 | 61 | 245 | 1.7 | 1.7 | 0.00 | 0.00 | 0.00 | 62 | 1015.0 |
| 20260902091446 | 61 | 251 | 1.7 | 1.7 | 0.00 | 0.00 | 0.00 | 62 | 1015.0 |
| 20260902090943 | 62 | 247 | 0.9 | 0.9 | 0.00 | 0.00 | 0.00 | 62 | 1015.2 |
| 20260902090438 | 62 | 245 | 1.7 | 1.7 | 0.00 | 0.00 | 0.00 | 62 | 1015.3 |
| 20260902085936 | 62 | 260 | 0.9 | 0.9 | 0.00 | 0.00 | 0.00 | 61 | 1015.4 |
| 20260902085432 | 62 | 249 | 1.7 | 3.5 | 0.00 | 0.00 | 0.00 | 61 | 1015.3 |
| 20260902084927 | 62 | 286 | 0.9 | 1.7 | 0.00 | 0.00 | 0.00 | 60 | 1015.3 |
| 20260902084423 | 62 | 264 | 1.7 | 1.7 | 0.00 | 0.00 | 0.00 | 60 | 1015.4 |
| 20260902083919 | 62 | 213 | 1.7 | 3.5 | 0.00 | 0.00 | 0.00 | 60 | 1015.3 |
| 20260902083419 | 62 | 265 | 1.7 | 4.3 | 0.00 | 0.00 | 0.00 | 60 | 1015.1 |
| 20260902082914 | 62 | 290 | 2.6 | 3.5 | 0.00 | 0.00 | 0.00 | 59 | 1015.3 |
| 20260902082409 | 63 | 244 | 1.7 | 1.7 | 0.00 | 0.00 | 0.00 | 59 | 1015.4 |
| 20260902081906 | 63 | 240 | 1.7 | 1.7 | 0.00 | 0.00 | 0.00 | 58 | 1015.2 |
| 20260902081402 | 63 | 246 | 2.6 | 3.5 | 0.00 | 0.00 | 0.00 | 59 | 1015.5 |
| 20260902080856 | 63 | 227 | 1.7 | 3.5 | 0.00 | 0.00 | 0.00 | 58 | 1015.2 |
| 20260902080353 | 63 | 250 | 5.2 | 7.0 | 0.00 | 0.00 | 0.00 | 58 | 1015.3 |
| 20260902075852 | 63 | 277 | 4.3 | 5.2 | 0.00 | 0.00 | 0.00 | 58 | 1015.2 |
| 20260902075348 | 63 | 251 | 3.5 | 4.3 | 0.00 | 0.00 | 0.00 | 57 | 1015.1 |
| 20260902074843 | 63 | 259 | 2.6 | 3.5 | 0.00 | 0.00 | 0.00 | 58 | 1015.0 |
| 20260902074339 | 63 | 248 | 4.3 | 6.1 | 0.00 | 0.00 | 0.00 | 57 | 1015.1 |
| 20260902073834 | 63 | 259 | 5.2 | 7.0 | 0.00 | 0.00 | 0.00 | 56 | 1015.0 |
| 20260902073330 | 64 | 263 | 5.2 | 6.1 | 0.00 | 0.00 | 0.00 | 57 | 1015.1 |
| 20260902072826 | 64 | 246 | 4.3 | 5.2 | 0.00 | 0.00 | 0.00 | 57 | 1015.1 |
| 20260902072321 | 64 | 242 | 4.3 | 6.1 | 0.00 | 0.00 | 0.00 | 56 | 1015.1 |
| 20260902071818 | 64 | 249 | 3.5 | 4.3 | 0.00 | 0.00 | 0.00 | 57 | 1015.0 |
| 20260902071312 | 64 | 266 | 5.2 | 6.1 | 0.00 | 0.00 | 0.00 | 56 | 1015.1 |
| 20260902070809 | 64 | 248 | 4.3 | 7.0 | 0.00 | 0.00 | 0.00 | 57 | 1015.1 |
| 20260902070308 | 64 | 276 | 4.3 | 6.1 | 0.00 | 0.00 | 0.00 | 56 | 1015.2 |
| 20260902065807 | 64 | 266 | 3.5 | 4.3 | 0.00 | 0.00 | 0.00 | 57 | 1014.9 |
| 20260902065306 | 64 | 254 | 3.5 | 4.3 | 0.00 | 0.00 | 0.00 | 56 | 1014.8 |
| 20260902064758 | 64 | 301 | 5.2 | 6.1 | 0.00 | 0.00 | 0.00 | 55 | 1014.9 |
| 20260902064254 | 65 | 224 | 0.9 | 1.7 | 0.00 | 0.00 | 0.00 | 55 | 1014.9 |
| 20260902063749 | 65 | 238 | 5.2 | 7.8 | 0.00 | 0.00 | 0.00 | 55 | 1014.8 |
| 20260902063243 | 65 | 285 | 2.6 | 3.5 | 0.00 | 0.00 | 0.00 | 55 | 1014.8 |
| 20260902062743 | 65 | 267 | 5.2 | 7.0 | 0.00 | 0.00 | 0.00 | 54 | 1014.7 |
| 20260902062238 | 65 | 162 | 2.6 | 4.3 | 0.00 | 0.00 | 0.00 | 55 | 1014.8 |
| 20260902061737 | 66 | 247 | 3.5 | 5.2 | 0.00 | 0.00 | 0.00 | 55 | 1014.9 |
| 20260902061233 | 66 | 269 | 3.5 | 4.3 | 0.00 | 0.00 | 0.00 | 54 | 1014.7 |
| 20260902060730 | 66 | 267 | 6.1 | 7.8 | 0.00 | 0.00 | 0.00 | 53 | 1014.6 |
| 20260902060225 | 66 | 243 | 2.6 | 4.3 | 0.00 | 0.00 | 0.00 | 55 | 1014.4 |
| 20260902055720 | 66 | 262 | 1.7 | 1.7 | 0.00 | 0.00 | 0.00 | 54 | 1014.7 |
| 20260902055217 | 66 | 248 | 5.2 | 7.0 | 0.00 | 0.00 | 0.00 | 54 | 1014.6 |
| 20260902054712 | 66 | 264 | 4.3 | 5.2 | 0.00 | 0.00 | 0.00 | 54 | 1014.6 |
| 20260902054207 | 66 | 296 | 2.6 | 3.5 | 0.00 | 0.00 | 0.00 | 55 | 1014.7 |
| 20260902053703 | 66 | 264 | 3.5 | 4.3 | 0.00 | 0.00 | 0.00 | 55 | 1014.6 |
| 20260902053202 | 66 | 286 | 4.3 | 5.2 | 0.00 | 0.00 | 0.00 | 55 | 1014.8 |
| 20260902052701 | 66 | 273 | 4.3 | 5.2 | 0.00 | 0.00 | 0.00 | 55 | 1014.8 |
| 20260902052157 | 66 | 280 | 2.6 | 3.5 | 0.00 | 0.00 | 0.00 | 55 | 1014.6 |
| 20260902051656 | 66 | 266 | 5.2 | 6.1 | 0.00 | 0.00 | 0.00 | 53 | 1014.7 |
| 20260902051151 | 67 | 261 | 4.3 | 6.1 | 0.00 | 0.00 | 0.00 | 52 | 1014.6 |
| 20260902050645 | 67 | 259 | 4.3 | 7.0 | 0.00 | 0.00 | 0.00 | 51 | 1014.5 |
| 20260902050141 | 67 | 299 | 5.2 | 7.0 | 0.00 | 0.00 | 0.00 | 51 | 1014.4 |
| 20260902045635 | 67 | 253 | 4.3 | 5.2 | 0.00 | 0.00 | 0.00 | 49 | 1014.4 |
| 20260902045131 | 68 | 241 | 4.3 | 5.2 | 0.00 | 0.00 | 0.00 | 49 | 1014.4 |
| 20260902044626 | 68 | 286 | 4.3 | 6.1 | 0.00 | 0.00 | 0.00 | 47 | 1014.4 |
| 20260902044123 | 68 | 291 | 3.5 | 4.3 | 0.00 | 0.00 | 0.00 | 46 | 1014.3 |
| 20260902043617 | 68 | 258 | 3.5 | 4.3 | 0.00 | 0.00 | 0.00 | 45 | 1014.2 |
| 20260902043112 | 69 | 259 | 2.6 | 4.3 | 0.00 | 0.00 | 0.00 | 46 | 1014.0 |
| 20260902042611 | 69 | 298 | 3.5 | 4.3 | 0.00 | 0.00 | 0.00 | 46 | 1014.1 |
| 20260902042108 | 69 | 257 | 2.6 | 4.3 | 0.00 | 0.00 | 0.00 | 45 | 1013.9 |
| 20260902041607 | 70 | 263 | 4.3 | 6.1 | 0.00 | 0.00 | 0.00 | 45 | 1013.9 |
| 20260902041101 | 70 | 240 | 5.2 | 7.0 | 0.00 | 0.00 | 0.00 | 45 | 1013.7 |
| 20260902040555 | 70 | 283 | 4.3 | 6.1 | 0.00 | 0.00 | 0.00 | 44 | 1013.9 |
| 20260902040050 | 70 | 267 | 2.6 | 4.3 | 0.00 | 0.00 | 0.00 | 44 | 1013.5 |
| 20260902035549 | 70 | 259 | 3.5 | 5.2 | 0.00 | 0.00 | 0.00 | 44 | 1013.5 |
| 20260902035045 | 70 | 274 | 2.6 | 4.3 | 0.00 | 0.00 | 0.00 | 45 | 1013.3 |
| 20260902034544 | 70 | 259 | 2.6 | 3.5 | 0.00 | 0.00 | 0.00 | 46 | 1013.4 |
| 20260902034043 | 70 | 271 | 0.9 | 0.9 | 0.00 | 0.00 | 0.00 | 49 | 1013.0 |
| 20260902033542 | 70 | 264 | 0.9 | 0.9 | 0.00 | 0.00 | 0.00 | 48 | 1013.1 |
| 20260902033037 | 70 | 104 | 0.0 | 0.0 | 0.00 | 0.00 | 0.00 | 48 | 1013.2 |
| 20260902032536 | 70 | 52 | 0.0 | 0.0 | 0.00 | 0.00 | 0.00 | 47 | 1012.9 |
| 20260902032031 | 71 | 54 | 0.0 | 0.0 | 0.00 | 0.00 | 0.00 | 47 | 1013.0 |
| 20260902031526 | 71 | 38 | 0.9 | 0.9 | 0.00 | 0.00 | 0.00 | 47 | 1012.8 |
| 20260902031022 | 71 | 265 | 0.0 | 0.9 | 0.00 | 0.00 | 0.00 | 48 | 1012.8 |
| 20260902030517 | 71 | 271 | 0.0 | 0.0 | 0.00 | 0.00 | 0.00 | 48 | 1012.9 |
| 20260902030016 | 72 | 282 | 0.9 | 0.9 | 0.00 | 0.00 | 0.00 | 47 | 1012.6 |
| 20260902025511 | 72 | 228 | 0.9 | 0.9 | 0.00 | 0.00 | 0.00 | 47 | 1012.6 |
| 20260902025006 | 73 | 31 | 0.0 | 0.0 | 0.00 | 0.00 | 0.00 | 46 | 1012.7 |
| 20260902024502 | 73 | 321 | 0.9 | 0.9 | 0.00 | 0.00 | 0.00 | 44 | 1012.7 |
| 20260902023956 | 73 | 48 | 0.0 | 0.0 | 0.00 | 0.00 | 0.00 | 44 | 1012.5 |
| 20260902023452 | 74 | 287 | 0.0 | 0.0 | 0.00 | 0.00 | 0.00 | 42 | 1012.5 |
| 20260902022951 | 74 | 250 | 0.9 | 0.9 | 0.00 | 0.00 | 0.00 | 41 | 1012.6 |
| 20260902022447 | 75 | 253 | 1.7 | 1.7 | 0.00 | 0.00 | 0.00 | 40 | 1012.5 |
| 20260902021942 | 75 | 267 | 3.5 | 4.3 | 0.00 | 0.00 | 0.00 | 38 | 1012.3 |
| 20260902021437 | 76 | 250 | 2.6 | 3.5 | 0.00 | 0.00 | 0.00 | 38 | 1012.7 |
| 20260902020932 | 76 | 264 | 2.6 | 3.5 | 0.00 | 0.00 | 0.00 | 37 | 1012.4 |
| 20260902020429 | 77 | 245 | 3.5 | 4.3 | 0.00 | 0.00 | 0.00 | 35 | 1012.3 |
| 20260902015924 | 77 | 266 | 3.5 | 4.3 | 0.00 | 0.00 | 0.00 | 34 | 1012.4 |
| 20260902015420 | 77 | 241 | 4.3 | 6.1 | 0.00 | 0.00 | 0.00 | 33 | 1012.3 |
| 20260902014915 | 78 | 280 | 1.7 | 1.7 | 0.00 | 0.00 | 0.00 | 33 | 1012.3 |
| 20260902014412 | 78 | 246 | 2.6 | 3.5 | 0.00 | 0.00 | 0.00 | 32 | 1012.2 |
| 20260902013910 | 78 | 281 | 2.6 | 3.5 | 0.00 | 0.00 | 0.00 | 31 | 1012.1 |
| 20260902013406 | 78 | 280 | 2.6 | 3.5 | 0.00 | 0.00 | 0.00 | 31 | 1012.0 |
| 20260902012901 | 78 | 256 | 2.6 | 4.3 | 0.00 | 0.00 | 0.00 | 30 | 1012.1 |
| 20260902012357 | 80 | 337 | 2.6 | 4.3 | 0.00 | 0.00 | 0.00 | 31 | 1012.0 |
| 20260902011852 | 80 | 266 | 1.7 | 1.7 | 0.00 | 0.00 | 0.00 | 28 | 1012.0 |
| 20260902011346 | 80 | 45 | 0.9 | 0.9 | 0.00 | 0.00 | 0.00 | 28 | 1012.1 |
| 20260902010841 | 80 | 290 | 1.7 | 3.5 | 0.00 | 0.00 | 0.00 | 31 | 1012.1 |
| 20260902010336 | 80 | 253 | 3.5 | 5.2 | 0.00 | 0.00 | 0.00 | 31 | 1012.1 |
| 20260902005835 | 81 | 265 | 2.6 | 4.3 | 0.00 | 0.00 | 0.00 | 30 | 1012.0 |
| 20260902005329 | 82 | 250 | 0.9 | 0.9 | 0.00 | 0.00 | 0.00 | 28 | 1012.0 |
| 20260902004825 | 82 | 271 | 4.3 | 5.2 | 0.00 | 0.00 | 0.00 | 27 | 1012.2 |
| 20260902004319 | 82 | 196 | 0.9 | 0.9 | 0.00 | 0.00 | 0.00 | 27 | 1012.0 |
| 20260902003814 | 82 | 105 | 0.9 | 0.9 | 0.00 | 0.00 | 0.00 | 26 | 1012.1 |
| 20260902003309 | 82 | 277 | 1.7 | 1.7 | 0.00 | 0.00 | 0.00 | 27 | 1012.1 |
| 20260902002805 | 83 | 214 | 0.9 | 1.7 | 0.00 | 0.00 | 0.00 | 26 | 1012.2 |
| 20260902002306 | 83 | 248 | 1.7 | 1.7 | 0.00 | 0.00 | 0.00 | 27 | 1012.2 |
| 20260902001800 | 82 | 344 | 0.9 | 1.7 | 0.00 | 0.00 | 0.00 | 29 | 1012.3 |
| 20260902001255 | 83 | 241 | 1.7 | 1.7 | 0.00 | 0.00 | 0.00 | 30 | 1012.3 |
| 20260902000749 | 81 | 259 | 2.6 | 3.5 | 0.00 | 0.00 | 0.00 | 29 | 1012.3 |
| 20260902000244 | 82 | 233 | 1.7 | 1.7 | 0.00 | 0.00 | 0.00 | 31 | 1012.3 |
| 20260901235739 | 83 | 147 | 0.9 | 0.9 | 0.00 | 0.00 | 0.00 | 29 | 1012.2 |
| 20260901235234 | 82 | 37 | 0.9 | 0.9 | 0.00 | 0.00 | 0.00 | 31 | 1012.4 |
| 20260901234734 | 82 | 22 | 0.0 | 0.9 | 0.00 | 0.00 | 0.00 | 31 | 1012.4 |
| 20260901234233 | 82 | 264 | 1.7 | 1.7 | 0.00 | 0.00 | 0.00 | 29 | 1012.4 |
| 20260901233728 | 81 | 265 | 2.6 | 3.5 | 0.00 | 0.00 | 0.00 | 29 | 1012.4 |
| 20260901233225 | 82 | 279 | 5.2 | 7.0 | 0.00 | 0.00 | 0.00 | 29 | 1012.5 |
| 20260901232725 | 81 | 225 | 2.6 | 3.5 | 0.00 | 0.00 | 0.00 | 30 | 1012.4 |
| 20260901232220 | 81 | 238 | 2.6 | 3.5 | 0.00 | 0.00 | 0.00 | 30 | 1012.4 |
| 20260901231716 | 80 | 209 | 1.7 | 1.7 | 0.00 | 0.00 | 0.00 | 30 | 1012.3 |
| 20260901231212 | 80 | 253 | 3.5 | 4.3 | 0.00 | 0.00 | 0.00 | 30 | 1012.4 |
| 20260901230708 | 81 | 250 | 3.5 | 4.3 | 0.00 | 0.00 | 0.00 | 31 | 1012.4 |
| 20260901230207 | 80 | 266 | 2.6 | 3.5 | 0.00 | 0.00 | 0.00 | 30 | 1012.8 |
| 20260901225703 | 82 | 238 | 4.3 | 4.3 | 0.00 | 0.00 | 0.00 | 31 | 1012.8 |
| 20260901225157 | 81 | 263 | 1.7 | 1.7 | 0.00 | 0.00 | 0.00 | 31 | 1012.9 |
| 20260901224653 | 81 | 251 | 1.7 | 1.7 | 0.00 | 0.00 | 0.00 | 32 | 1012.9 |
| 20260901224149 | 81 | 274 | 2.6 | 3.5 | 0.00 | 0.00 | 0.00 | 31 | 1012.8 |
| 20260901223644 | 81 | 228 | 2.6 | 3.5 | 0.00 | 0.00 | 0.00 | 32 | 1013.0 |
| 20260901223139 | 81 | 315 | 0.9 | 0.9 | 0.00 | 0.00 | 0.00 | 32 | 1012.8 |
| 20260901222636 | 81 | 300 | 2.6 | 4.3 | 0.00 | 0.00 | 0.00 | 34 | 1013.2 |
| 20260901222132 | 80 | 261 | 2.6 | 3.5 | 0.00 | 0.00 | 0.00 | 34 | 1013.3 |
| 20260901221627 | 81 | 287 | 2.6 | 3.5 | 0.00 | 0.00 | 0.00 | 33 | 1013.4 |
| 20260901221123 | 81 | 135 | 0.0 | 0.9 | 0.00 | 0.00 | 0.00 | 32 | 1013.2 |
| 20260901220622 | 81 | 344 | 1.7 | 1.7 | 0.00 | 0.00 | 0.00 | 33 | 1013.4 |
| 20260901220121 | 80 | 238 | 4.3 | 6.1 | 0.00 | 0.00 | 0.00 | 34 | 1013.5 |
| 20260901215619 | 80 | 309 | 1.7 | 1.7 | 0.00 | 0.00 | 0.00 | 33 | 1013.6 |
| 20260901215114 | 79 | 353 | 0.9 | 1.7 | 0.00 | 0.00 | 0.00 | 33 | 1013.8 |
| 20260901214613 | 80 | 82 | 0.9 | 0.9 | 0.00 | 0.00 | 0.00 | 33 | 1013.6 |
| 20260901214113 | 79 | 347 | 0.9 | 1.7 | 0.00 | 0.00 | 0.00 | 34 | 1013.7 |
| 20260901213607 | 78 | 265 | 3.5 | 4.3 | 0.00 | 0.00 | 0.00 | 35 | 1013.6 |
| 20260901213101 | 79 | 32 | 2.6 | 4.3 | 0.00 | 0.00 | 0.00 | 34 | 1013.7 |
| 20260901212601 | 78 | 230 | 0.9 | 0.9 | 0.00 | 0.00 | 0.00 | 36 | 1013.8 |
| 20260901212058 | 79 | 5 | 0.9 | 1.7 | 0.00 | 0.00 | 0.00 | 34 | 1013.8 |
| 20260901211553 | 78 | 32 | 0.9 | 0.9 | 0.00 | 0.00 | 0.00 | 34 | 1013.9 |
| 20260901211049 | 78 | 265 | 1.7 | 3.5 | 0.00 | 0.00 | 0.00 | 36 | 1013.7 |
| 20260901210544 | 79 | 240 | 1.7 | 1.7 | 0.00 | 0.00 | 0.00 | 35 | 1014.1 |
| 20260901210041 | 78 | 74 | 0.0 | 0.0 | 0.00 | 0.00 | 0.00 | 34 | 1014.0 |
| 20260901205535 | 77 | 224 | 2.6 | 3.5 | 0.00 | 0.00 | 0.00 | 35 | 1014.1 |
| 20260901205030 | 77 | 240 | 2.6 | 3.5 | 0.00 | 0.00 | 0.00 | 35 | 1014.2 |
| 20260901204526 | 78 | 323 | 0.9 | 0.9 | 0.00 | 0.00 | 0.00 | 35 | 1014.0 |
| 20260901204021 | 78 | 10 | 1.7 | 1.7 | 0.00 | 0.00 | 0.00 | 35 | 1014.0 |
| 20260901203515 | 77 | 82 | 1.7 | 1.7 | 0.00 | 0.00 | 0.00 | 36 | 1014.3 |
| 20260901203010 | 76 | 353 | 0.9 | 0.9 | 0.00 | 0.00 | 0.00 | 37 | 1014.3 |
| 20260901202505 | 77 | 30 | 0.9 | 0.9 | 0.00 | 0.00 | 0.00 | 36 | 1014.4 |
| 20260901202001 | 76 | 28 | 3.5 | 5.2 | 0.00 | 0.00 | 0.00 | 36 | 1014.5 |
| 20260901201456 | 76 | 251 | 3.5 | 4.3 | 0.00 | 0.00 | 0.00 | 38 | 1014.5 |
| 20260901200950 | 75 | 290 | 2.6 | 3.5 | 0.00 | 0.00 | 0.00 | 39 | 1014.6 |
| 20260901200445 | 75 | 324 | 0.9 | 0.9 | 0.00 | 0.00 | 0.00 | 38 | 1014.4 |
| 20260901195944 | 74 | 263 | 4.3 | 5.2 | 0.00 | 0.00 | 0.00 | 39 | 1014.7 |
| 20260901195443 | 75 | 262 | 1.7 | 3.5 | 0.00 | 0.00 | 0.00 | 39 | 1014.7 |
| 20260901194937 | 75 | 243 | 0.9 | 1.7 | 0.00 | 0.00 | 0.00 | 38 | 1014.9 |
| 20260901194433 | 76 | 75 | 0.9 | 0.9 | 0.00 | 0.00 | 0.00 | 36 | 1015.0 |
| 20260901193929 | 75 | 214 | 0.9 | 1.7 | 0.00 | 0.00 | 0.00 | 40 | 1015.1 |
| 20260901193428 | 73 | 258 | 3.5 | 3.5 | 0.00 | 0.00 | 0.00 | 39 | 1015.0 |
| 20260901192927 | 74 | 348 | 0.0 | 0.9 | 0.00 | 0.00 | 0.00 | 38 | 1015.0 |
| 20260901192423 | 74 | 240 | 5.2 | 6.1 | 0.00 | 0.00 | 0.00 | 38 | 1015.1 |
| 20260901191919 | 74 | 269 | 1.7 | 3.5 | 0.00 | 0.00 | 0.00 | 42 | 1015.2 |
| 20260901191415 | 73 | 157 | 0.0 | 0.9 | 0.00 | 0.00 | 0.00 | 41 | 1015.2 |
| 20260901190910 | 73 | 309 | 0.9 | 0.9 | 0.00 | 0.00 | 0.00 | 40 | 1015.3 |
| 20260901190405 | 72 | 44 | 0.0 | 0.0 | 0.00 | 0.00 | 0.00 | 41 | 1015.3 |
| 20260901185903 | 74 | 218 | 3.5 | 4.3 | 0.00 | 0.00 | 0.00 | 40 | 1015.5 |
| 20260901185403 | 73 | 98 | 0.0 | 0.9 | 0.00 | 0.00 | 0.00 | 42 | 1015.4 |
| 20260901184857 | 73 | 20 | 0.0 | 0.0 | 0.00 | 0.00 | 0.00 | 42 | 1015.6 |
| 20260901184353 | 71 | 278 | 1.7 | 1.7 | 0.00 | 0.00 | 0.00 | 43 | 1015.4 |
| 20260901183848 | 71 | 345 | 1.7 | 3.5 | 0.00 | 0.00 | 0.00 | 43 | 1015.7 |
| 20260901183347 | 70 | 257 | 2.6 | 3.5 | 0.00 | 0.00 | 0.00 | 45 | 1015.6 |
| 20260901182844 | 71 | 246 | 4.3 | 5.2 | 0.00 | 0.00 | 0.00 | 45 | 1015.5 |
| 20260901182344 | 71 | 262 | 4.3 | 5.2 | 0.00 | 0.00 | 0.00 | 45 | 1015.6 |
| 20260901181838 | 71 | 41 | 0.0 | 0.9 | 0.00 | 0.00 | 0.00 | 44 | 1015.4 |
| 20260901181333 | 70 | 241 | 0.9 | 0.9 | 0.00 | 0.00 | 0.00 | 45 | 1015.4 |
| 20260901180832 | 70 | 266 | 2.6 | 3.5 | 0.00 | 0.00 | 0.00 | 46 | 1015.5 |
| 20260901180332 | 71 | 231 | 1.7 | 1.7 | 0.00 | 0.00 | 0.00 | 46 | 1015.6 |
| 20260901175831 | 70 | 197 | 0.0 | 0.9 | 0.00 | 0.00 | 0.00 | 46 | 1015.8 |
| 20260901175325 | 70 | 243 | 3.5 | 5.2 | 0.00 | 0.00 | 0.00 | 46 | 1015.6 |
| 20260901174820 | 70 | 239 | 2.6 | 3.5 | 0.00 | 0.00 | 0.00 | 47 | 1015.7 |
| 20260901174316 | 69 | 250 | 0.0 | 0.9 | 0.00 | 0.00 | 0.00 | 49 | 1015.6 |
| 20260901173811 | 69 | 254 | 3.5 | 4.3 | 0.00 | 0.00 | 0.00 | 46 | 1015.6 |
| 20260901173306 | 69 | 233 | 4.3 | 7.0 | 0.00 | 0.00 | 0.00 | 48 | 1015.4 |
| 20260901172803 | 68 | 244 | 1.7 | 3.5 | 0.00 | 0.00 | 0.00 | 51 | 1015.7 |
| 20260901172304 | 68 | 242 | 2.6 | 3.5 | 0.00 | 0.00 | 0.00 | 49 | 1015.4 |
| 20260901171800 | 68 | 241 | 4.3 | 6.1 | 0.00 | 0.00 | 0.00 | 50 | 1015.3 |
| 20260901171259 | 68 | 277 | 4.3 | 5.2 | 0.00 | 0.00 | 0.00 | 50 | 1015.3 |
| 20260901170759 | 68 | 144 | 0.9 | 0.9 | 0.00 | 0.00 | 0.00 | 50 | 1015.6 |
| 20260901170253 | 68 | 269 | 0.9 | 0.9 | 0.00 | 0.00 | 0.00 | 51 | 1015.5 |
| 20260901165752 | 68 | 110 | 1.7 | 1.7 | 0.00 | 0.00 | 0.00 | 50 | 1015.5 |
| 20260901165247 | 67 | 243 | 0.9 | 1.7 | 0.00 | 0.00 | 0.00 | 51 | 1015.6 |
| 20260901164743 | 66 | 250 | 2.6 | 4.3 | 0.00 | 0.00 | 0.00 | 53 | 1015.4 |
| 20260901164239 | 66 | 251 | 4.3 | 5.2 | 0.00 | 0.00 | 0.00 | 53 | 1015.2 |
| 20260901163733 | 66 | 249 | 3.5 | 4.3 | 0.00 | 0.00 | 0.00 | 53 | 1015.6 |
| 20260901163232 | 66 | 245 | 1.7 | 3.5 | 0.00 | 0.00 | 0.00 | 55 | 1015.2 |
| 20260901162728 | 66 | 261 | 6.1 | 6.1 | 0.00 | 0.00 | 0.00 | 54 | 1015.1 |
| 20260901162227 | 66 | 158 | 0.9 | 1.7 | 0.00 | 0.00 | 0.00 | 55 | 1015.2 |
| 20260901161726 | 66 | 46 | 0.9 | 1.7 | 0.00 | 0.00 | 0.00 | 55 | 1015.3 |
| 20260901161221 | 65 | 12 | 0.9 | 0.9 | 0.00 | 0.00 | 0.00 | 57 | 1015.0 |
| 20260901160717 | 64 | 18 | 1.7 | 3.5 | 0.00 | 0.00 | 0.00 | 57 | 1015.1 |
| 20260901160212 | 63 | 230 | 1.7 | 1.7 | 0.00 | 0.00 | 0.00 | 58 | 1014.9 |
| 20260901155711 | 64 | 161 | 0.9 | 0.9 | 0.00 | 0.00 | 0.00 | 59 | 1014.9 |
| 20260901155207 | 63 | 192 | 0.9 | 0.9 | 0.00 | 0.00 | 0.00 | 59 | 1014.6 |
| 20260901154702 | 63 | 207 | 2.6 | 3.5 | 0.00 | 0.00 | 0.00 | 60 | 1014.5 |
| 20260901154156 | 63 | 82 | 0.9 | 0.9 | 0.00 | 0.00 | 0.00 | 61 | 1014.8 |
| 20260901153652 | 62 | 275 | 1.7 | 1.7 | 0.00 | 0.00 | 0.00 | 62 | 1014.5 |
| 20260901153151 | 62 | 241 | 3.5 | 4.3 | 0.00 | 0.00 | 0.00 | 62 | 1014.6 |
| 20260901152646 | 62 | 276 | 0.9 | 1.7 | 0.00 | 0.00 | 0.00 | 63 | 1014.6 |
| 20260901152144 | 62 | 250 | 1.7 | 1.7 | 0.00 | 0.00 | 0.00 | 63 | 1014.6 |
| 20260901151641 | 62 | 19 | 0.9 | 1.7 | 0.00 | 0.00 | 0.00 | 64 | 1014.5 |
| 20260901151140 | 60 | 306 | 1.7 | 1.7 | 0.00 | 0.00 | 0.00 | 65 | 1014.6 |
| 20260901150639 | 60 | 121 | 0.9 | 0.9 | 0.00 | 0.00 | 0.00 | 66 | 1014.5 |
| 20260901150132 | 60 | 150 | 1.7 | 1.7 | 0.00 | 0.00 | 0.00 | 67 | 1014.5 |
| 20260901145630 | 60 | 193 | 1.7 | 1.7 | 0.00 | 0.00 | 0.00 | 68 | 1014.6 |
| 20260901145130 | 60 | 261 | 0.9 | 1.7 | 0.00 | 0.00 | 0.00 | 68 | 1014.4 |
| 20260901144626 | 59 | 233 | 0.9 | 0.9 | 0.00 | 0.00 | 0.00 | 69 | 1014.4 |
| 20260901144121 | 59 | 144 | 0.9 | 0.9 | 0.00 | 0.00 | 0.00 | 70 | 1014.5 |
| 20260901143616 | 59 | 251 | 0.9 | 1.7 | 0.00 | 0.00 | 0.00 | 70 | 1014.7 |
| 20260901143112 | 58 | 12 | 0.9 | 1.7 | 0.00 | 0.00 | 0.00 | 71 | 1014.3 |
| 20260901142608 | 57 | 36 | 0.0 | 0.0 | 0.00 | 0.00 | 0.00 | 72 | 1014.3 |
| 20260901142107 | 57 | 258 | 1.7 | 3.5 | 0.00 | 0.00 | 0.00 | 73 | 1014.2 |
| 20260901141602 | 57 | 58 | 0.0 | 0.0 | 0.00 | 0.00 | 0.00 | 73 | 1014.3 |
| 20260901141057 | 57 | 261 | 1.7 | 1.7 | 0.00 | 0.00 | 0.00 | 74 | 1013.9 |
| 20260901140555 | 57 | 269 | 1.7 | 1.7 | 0.00 | 0.00 | 0.00 | 74 | 1014.0 |
| 20260901140055 | 57 | 38 | 0.0 | 0.0 | 0.00 | 0.00 | 0.00 | 75 | 1013.9 |
| 20260901135555 | 57 | 266 | 0.9 | 1.7 | 0.00 | 0.00 | 0.00 | 74 | 1013.9 |
| 20260901135050 | 57 | 276 | 0.0 | 0.9 | 0.00 | 0.00 | 0.00 | 74 | 1013.8 |
| 20260901134547 | 57 | 247 | 2.6 | 3.5 | 0.00 | 0.00 | 0.00 | 74 | 1013.9 |
| 20260901134047 | 57 | 271 | 2.6 | 3.5 | 0.00 | 0.00 | 0.00 | 74 | 1013.8 |
| 20260901133546 | 57 | 280 | 2.6 | 5.2 | 0.00 | 0.00 | 0.00 | 74 | 1013.8 |
| 20260901133044 | 57 | 252 | 1.7 | 1.7 | 0.00 | 0.00 | 0.00 | 74 | 1013.8 |
| 20260901132539 | 57 | 254 | 3.5 | 4.3 | 0.00 | 0.00 | 0.00 | 74 | 1013.7 |
| 20260901132038 | 57 | 264 | 1.7 | 1.7 | 0.00 | 0.00 | 0.00 | 74 | 1013.5 |
| 20260901131532 | 57 | 281 | 0.0 | 0.9 | 0.00 | 0.00 | 0.00 | 74 | 1013.3 |
| 20260901131023 | 57 | 249 | 0.9 | 0.9 | 0.00 | 0.00 | 0.00 | 73 | 1013.3 |
| 20260901130522 | 57 | 267 | 2.6 | 3.5 | 0.00 | 0.00 | 0.00 | 73 | 1013.1 |
| 20260901130021 | 57 | 248 | 1.7 | 1.7 | 0.00 | 0.00 | 0.00 | 73 | 1013.1 |
| 20260901125520 | 58 | 258 | 1.7 | 3.5 | 0.00 | 0.00 | 0.00 | 73 | 1012.9 |
| 20260901125015 | 58 | 237 | 0.9 | 1.7 | 0.00 | 0.00 | 0.00 | 72 | 1012.8 |